Chantaco — FMLM — position and weather

sailwx.info

Track history (hours):
 
Tides and Currents Weather Stations Pressure Air Temp Water Temp Dewpoint Dewpoint Depression Visibility Wind Speed Wind Dir Waves Ship Positions

Chantaco

Last reported at 2015-May-26 13:28 UTC. Time now 2015-May-26 13:39 UTC.
Position N 53°36' E 000°27'.

Length 143 m; draft 6.2 m.

Type: Tanker. MMSI: 228330700.

Date/timePositionNaut miles runAvg speedWind from/ knotsBaromVisibWave heightAir tempDewpointWater temp
2015-May-26 13:28N 53°36' E 000°27'0 0.1
2015-May-26 12:25N 53°36' E 000°27'0 0.0
2015-May-26 11:25N 53°36' E 000°27'0 0.0
2015-May-26 10:25N 53°36' E 000°27'0 0.0
2015-May-26 09:25N 53°36' E 000°27'0 0.0
2015-May-26 08:07N 53°36' E 000°27'0 0.0
2015-May-26 07:28N 53°36' E 000°27'0 0.1
2015-May-26 06:31N 53°37' E 000°27'0 0.0
2015-May-26 05:25N 53°37' E 000°27'0 0.0
2015-May-26 04:28N 53°37' E 000°27'0 0.0
2015-May-26 03:28N 53°37' E 000°27'0 0.0
2015-May-26 02:16N 53°37' E 000°27'0 0.1
2015-May-26 01:28N 53°37' E 000°27'0 0.0
2015-May-26 00:31N 53°36' E 000°27'0 0.0
2015-May-25 23:31N 53°36' E 000°27'0 0.0
2015-May-25 22:31N 53°36' E 000°27'0 0.0
2015-May-25 21:19N 53°36' E 000°27'0 0.0
2015-May-25 20:28N 53°36' E 000°27'0 0.0
2015-May-25 19:31N 53°36' E 000°27'0 0.1
2015-May-25 18:31N 53°37' E 000°27'0 0.0
2015-May-25 17:31N 53°37' E 000°27'0 0.0
2015-May-25 16:22N 53°37' E 000°27'0 0.1
2015-May-25 15:33N 53°37' E 000°27'1111.5
2015-May-25 14:33N 53°26' E 000°35'2612.7
2015-May-25 12:30N 53°05' E 001°01'1111.4
2015-May-25 11:33N 53°00' E 001°17'1111.2
2015-May-25 10:34N 52°56' E 001°34'1212.4
2015-May-25 09:33N 52°49' E 001°51'1313.3
2015-May-25 08:33N 52°42' E 002°09'6613.3
2015-May-25 03:33N 52°06' E 003°41'1211.7
2015-May-25 02:33N 52°01' E 003°58'1312.9
2015-May-25 01:33N 51°54' E 004°16'1 0.0
2015-May-23 15:08N 51°53' E 004°17'1 1.2
2015-May-23 14:34N 51°54' E 004°18'10 9.5
2015-May-23 13:34N 51°59' E 004°05'1010.0
2015-May-23 12:33N 52°00' E 003°49'10 8.3
2015-May-23 11:25N 52°08' E 003°39'0 0.0
2015-May-23 10:22N 52°08' E 003°39'0 0.0
2015-May-23 09:28N 52°08' E 003°39'0 0.1
2015-May-23 07:28N 52°08' E 003°39'3 3.2
2015-May-23 06:33N 52°09' E 003°35'7312.0
2015-May-23 00:29N 52°59' E 002°08'1314.4
2015-May-22 23:33N 53°04' E 001°47'1414.3
2015-May-22 22:33N 53°11' E 001°26'3313.8
2015-May-22 20:10N 53°32' E 000°44'914.0
2015-May-22 19:33N 53°36' E 000°32'9 9.2
2015-May-22 18:33N 53°34' E 000°17'8 8.1
2015-May-22 17:34N 53°36' E 000°03'8 7.9
2015-May-22 16:33N 53°38' W 000°10'0 0.1
2015-May-22 15:31N 53°38' W 000°10'0 0.0
2015-May-22 14:31N 53°38' W 000°10'0 0.0
2015-May-22 13:31N 53°38' W 000°10'0 0.0
2015-May-22 12:31N 53°38' W 000°10'0 0.0
2015-May-22 11:31N 53°38' W 000°10'0 0.0
2015-May-22 10:31N 53°38' W 000°10'0 0.0
2015-May-22 09:31N 53°38' W 000°10'0 0.0
2015-May-22 08:31N 53°38' W 000°10'0 0.0
2015-May-22 07:31N 53°38' W 000°10'0 0.0
2015-May-22 06:31N 53°38' W 000°10'0 0.0
2015-May-22 05:31N 53°38' W 000°10'0 0.0
2015-May-22 04:31N 53°38' W 000°10'0 0.0
2015-May-22 03:31N 53°38' W 000°10'0 0.0
2015-May-22 02:31N 53°38' W 000°10'0 0.0
2015-May-22 01:31N 53°38' W 000°10'0 0.0
2015-May-22 00:31N 53°38' W 000°10'0 0.0
2015-May-21 23:31N 53°38' W 000°10'0 0.0
2015-May-21 22:31N 53°38' W 000°10'0 0.0
2015-May-21 21:31N 53°38' W 000°10'0 0.0
2015-May-21 20:31N 53°38' W 000°10'0 0.0
2015-May-21 19:31N 53°38' W 000°10'0 0.0
2015-May-21 18:31N 53°38' W 000°10'0 0.0
2015-May-21 17:31N 53°38' W 000°10'0 0.0
2015-May-21 16:34N 53°38' W 000°10'0 0.0
2015-May-21 15:34N 53°38' W 000°10'0 0.0
2015-May-21 14:34N 53°38' W 000°10'0 0.0
2015-May-21 13:33N 53°38' W 000°10'0 0.0
2015-May-21 12:33N 53°38' W 000°10'0 0.0
2015-May-21 11:33N 53°38' W 000°10'0 0.0
2015-May-21 10:33N 53°38' W 000°10'0 0.0
2015-May-21 09:33N 53°38' W 000°10'0 0.0
2015-May-21 08:33N 53°38' W 000°10'5 4.6
2015-May-21 07:33N 53°36' W 000°03'1110.6
2015-May-21 06:34N 53°33' E 000°15'7 7.2
2015-May-21 05:33N 53°36' E 000°26'0 0.0
2015-May-21 04:33N 53°36' E 000°26'0 0.0
2015-May-21 03:30N 53°36' E 000°26'0 0.1
2015-May-21 02:27N 53°36' E 000°26'0 0.2
2015-May-21 01:27N 53°36' E 000°26'0 0.0
2015-May-21 00:33N 53°36' E 000°26'0 0.0
2015-May-20 23:27N 53°36' E 000°26'0 0.0
2015-May-20 22:21N 53°36' E 000°26'0 0.0
2015-May-20 21:30N 53°36' E 000°26'0 0.2
2015-May-20 20:26N 53°36' E 000°26'0 0.0
2015-May-20 19:32N 53°36' E 000°26'0 0.0
2015-May-20 18:32N 53°36' E 000°26'0 0.0
2015-May-20 17:29N 53°36' E 000°26'0 0.0
2015-May-20 16:32N 53°36' E 000°26'0 0.0
2015-May-20 15:29N 53°36' E 000°26'0 0.1
2015-May-20 14:32N 53°36' E 000°26'0 0.2
2015-May-20 13:32N 53°36' E 000°26'0 0.0
2015-May-20 12:29N 53°36' E 000°26'0 0.0
2015-May-20 11:32N 53°36' E 000°26'0 0.0
2015-May-20 10:32N 53°36' E 000°26'0 0.1
2015-May-20 09:32N 53°36' E 000°26'0 0.1
2015-May-20 08:29N 53°36' E 000°26'0 0.0
2015-May-20 07:29N 53°36' E 000°26'0 0.0
2015-May-20 06:32N 53°36' E 000°26'0 0.0
2015-May-20 05:32N 53°36' E 000°26'0 0.0
2015-May-20 04:32N 53°36' E 000°26'0 0.0
2015-May-20 03:32N 53°36' E 000°26'0 0.1
2015-May-20 02:29N 53°36' E 000°26'0 0.1
2015-May-20 01:32N 53°36' E 000°26'0 0.1
2015-May-20 00:26N 53°36' E 000°26'0 0.0
2015-May-19 23:26N 53°36' E 000°26'0 0.0
2015-May-19 22:32N 53°36' E 000°26'0 0.0
2015-May-19 21:32N 53°36' E 000°26'0 0.1
2015-May-19 20:29N 53°36' E 000°26'0 0.1
2015-May-19 19:29N 53°36' E 000°26'0 0.1
2015-May-19 18:32N 53°36' E 000°26'0 0.0
2015-May-19 17:29N 53°36' E 000°26'0 0.0
2015-May-19 16:32N 53°36' E 000°26'0 0.0
2015-May-19 15:32N 53°36' E 000°26'0 0.1
2015-May-19 14:32N 53°36' E 000°26'0 0.1
2015-May-19 13:32N 53°36' E 000°26'0 0.1
2015-May-19 12:26N 53°36' E 000°26'0 0.0
2015-May-19 11:32N 53°36' E 000°26'0 0.0
2015-May-19 10:32N 53°36' E 000°26'0 0.0
2015-May-19 09:32N 53°36' E 000°26'0 0.1
2015-May-19 08:20N 53°36' E 000°26'0 0.0
2015-May-19 07:28N 53°36' E 000°26'0 0.1
2015-May-19 06:31N 53°36' E 000°26'0 0.1
2015-May-19 05:31N 53°36' E 000°26'0 0.1
2015-May-19 04:31N 53°36' E 000°26'0 0.0
2015-May-19 03:31N 53°36' E 000°26'0 0.1
2015-May-19 02:31N 53°36' E 000°26'0 0.1
2015-May-19 01:31N 53°36' E 000°26'0 0.1
2015-May-19 00:31N 53°36' E 000°26'0 0.0
2015-May-18 23:31N 53°36' E 000°26'0 0.0
2015-May-18 22:31N 53°36' E 000°26'0 0.0
2015-May-18 21:28N 53°36' E 000°26'0 0.0
2015-May-18 20:13N 53°36' E 000°26'0 0.1
2015-May-18 19:28N 53°36' E 000°26'0 0.1
2015-May-18 18:25N 53°36' E 000°26'0 0.0
2015-May-18 17:25N 53°36' E 000°26'0 0.0
2015-May-18 16:31N 53°36' E 000°26'4 4.4
2015-May-18 15:33N 53°32' E 000°29'8 7.9
2015-May-18 14:32N 53°25' E 000°34'26 8.9
2015-May-18 11:33N 53°04' E 001°02'10 9.8
2015-May-18 10:33N 53°00' E 001°17'10 9.9
2015-May-18 09:33N 52°56' E 001°32'9 9.1
2015-May-18 08:33N 52°51' E 001°45'9 8.6
2015-May-18 07:33N 52°47' E 001°57'8 7.6
2015-May-18 06:33N 52°40' E 002°01'9 8.8
2015-May-18 05:33N 52°31' E 002°00'9 9.2
2015-May-18 04:33N 52°22' E 001°57'9 9.0
2015-May-18 03:33N 52°13' E 001°54'9 9.0
2015-May-18 02:33N 52°04' E 001°52'9 9.2
2015-May-18 01:33N 51°55' E 001°49'9 9.2
2015-May-18 00:33N 51°46' E 001°49'9 9.3
2015-May-17 23:33N 51°37' E 001°50'9 8.8
2015-May-17 22:33N 51°28' E 001°47'10 9.5
2015-May-17 21:33N 51°19' E 001°42'9 9.1
2015-May-17 20:33N 51°11' E 001°36'7 7.1
2015-May-17 19:34N 51°04' E 001°36'8 7.8
2015-May-17 18:33N 50°58' E 001°28'8 8.0
2015-May-17 17:33N 50°51' E 001°24'9 8.5
2015-May-17 16:33N 50°43' E 001°20'11 8.9
2015-May-17 15:20N 50°35' E 001°07'60 8.9
2015-May-17 08:33N 49°50' E 000°05'1110.5
2015-May-17 07:33N 49°41' W 000°05'9 8.8
2015-May-17 06:33N 49°32' W 000°04'3 3.3
2015-May-17 05:31N 49°29' W 000°02'0 0.0
2015-May-17 04:31N 49°29' W 000°02'0 0.0
2015-May-17 03:31N 49°29' W 000°02'0 0.0
2015-May-17 02:28N 49°29' W 000°02'0 0.0
2015-May-17 01:34N 49°29' W 000°02'0 0.1
2015-May-17 00:33N 49°29' W 000°02'0 0.1
2015-May-16 23:33N 49°29' W 000°02'0 0.0
2015-May-16 22:33N 49°29' W 000°02'0 0.0
2015-May-16 21:33N 49°29' W 000°02'0 0.0
2015-May-16 20:33N 49°29' W 000°02'0 0.0
2015-May-16 19:33N 49°29' W 000°02'0 0.0
2015-May-16 18:33N 49°29' W 000°02'0 0.0
2015-May-16 17:33N 49°29' W 000°02'0 0.0
2015-May-16 16:33N 49°29' W 000°02'0 0.0
2015-May-16 15:33N 49°29' W 000°02'0 0.0
2015-May-16 14:33N 49°29' W 000°02'0 0.0
2015-May-16 13:33N 49°29' W 000°02'  
Track history (hours):
 
Tides and Currents Weather Stations Pressure Air Temp Water Temp Dewpoint Dewpoint Depression Visibility Wind Speed Wind Dir Waves Ship Positions

Chantaco

Last reported at 2015-May-26 13:28 UTC. Time now 2015-May-26 13:39 UTC.
Position N 53°36' E 000°27'.

Length 143 m; draft 6.2 m.

Type: Tanker. MMSI: 228330700.

Date/timePositionNaut miles runAvg speedWind from/ knotsBaromVisibWave heightAir tempDewpointWater temp
2015-May-26 13:28N 53°36' E 000°27'0 0.1
2015-May-26 12:25N 53°36' E 000°27'0 0.0
2015-May-26 11:25N 53°36' E 000°27'0 0.0
2015-May-26 10:25N 53°36' E 000°27'0 0.0
2015-May-26 09:25N 53°36' E 000°27'0 0.0
2015-May-26 08:07N 53°36' E 000°27'0 0.0
2015-May-26 07:28N 53°36' E 000°27'0 0.1
2015-May-26 06:31N 53°37' E 000°27'0 0.0
2015-May-26 05:25N 53°37' E 000°27'0 0.0
2015-May-26 04:28N 53°37' E 000°27'0 0.0
2015-May-26 03:28N 53°37' E 000°27'0 0.0
2015-May-26 02:16N 53°37' E 000°27'0 0.1
2015-May-26 01:28N 53°37' E 000°27'0 0.0
2015-May-26 00:31N 53°36' E 000°27'0 0.0
2015-May-25 23:31N 53°36' E 000°27'0 0.0
2015-May-25 22:31N 53°36' E 000°27'0 0.0
2015-May-25 21:19N 53°36' E 000°27'0 0.0
2015-May-25 20:28N 53°36' E 000°27'0 0.0
2015-May-25 19:31N 53°36' E 000°27'0 0.1
2015-May-25 18:31N 53°37' E 000°27'0 0.0
2015-May-25 17:31N 53°37' E 000°27'0 0.0
2015-May-25 16:22N 53°37' E 000°27'0 0.1
2015-May-25 15:33N 53°37' E 000°27'1111.5
2015-May-25 14:33N 53°26' E 000°35'2612.7
2015-May-25 12:30N 53°05' E 001°01'1111.4
2015-May-25 11:33N 53°00' E 001°17'1111.2
2015-May-25 10:34N 52°56' E 001°34'1212.4
2015-May-25 09:33N 52°49' E 001°51'1313.3
2015-May-25 08:33N 52°42' E 002°09'6613.3
2015-May-25 03:33N 52°06' E 003°41'1211.7
2015-May-25 02:33N 52°01' E 003°58'1312.9
2015-May-25 01:33N 51°54' E 004°16'1 0.0
2015-May-23 15:08N 51°53' E 004°17'1 1.2
2015-May-23 14:34N 51°54' E 004°18'10 9.5
2015-May-23 13:34N 51°59' E 004°05'1010.0
2015-May-23 12:33N 52°00' E 003°49'10 8.3
2015-May-23 11:25N 52°08' E 003°39'0 0.0
2015-May-23 10:22N 52°08' E 003°39'0 0.0
2015-May-23 09:28N 52°08' E 003°39'0 0.1
2015-May-23 07:28N 52°08' E 003°39'3 3.2
2015-May-23 06:33N 52°09' E 003°35'7312.0
2015-May-23 00:29N 52°59' E 002°08'1314.4
2015-May-22 23:33N 53°04' E 001°47'1414.3
2015-May-22 22:33N 53°11' E 001°26'3313.8
2015-May-22 20:10N 53°32' E 000°44'914.0
2015-May-22 19:33N 53°36' E 000°32'9 9.2
2015-May-22 18:33N 53°34' E 000°17'8 8.1
2015-May-22 17:34N 53°36' E 000°03'8 7.9
2015-May-22 16:33N 53°38' W 000°10'0 0.1
2015-May-22 15:31N 53°38' W 000°10'0 0.0
2015-May-22 14:31N 53°38' W 000°10'0 0.0
2015-May-22 13:31N 53°38' W 000°10'0 0.0
2015-May-22 12:31N 53°38' W 000°10'0 0.0
2015-May-22 11:31N 53°38' W 000°10'0 0.0
2015-May-22 10:31N 53°38' W 000°10'0 0.0
2015-May-22 09:31N 53°38' W 000°10'0 0.0
2015-May-22 08:31N 53°38' W 000°10'0 0.0
2015-May-22 07:31N 53°38' W 000°10'0 0.0
2015-May-22 06:31N 53°38' W 000°10'0 0.0
2015-May-22 05:31N 53°38' W 000°10'0 0.0
2015-May-22 04:31N 53°38' W 000°10'0 0.0
2015-May-22 03:31N 53°38' W 000°10'0 0.0
2015-May-22 02:31N 53°38' W 000°10'0 0.0
2015-May-22 01:31N 53°38' W 000°10'0 0.0
2015-May-22 00:31N 53°38' W 000°10'0 0.0
2015-May-21 23:31N 53°38' W 000°10'0 0.0
2015-May-21 22:31N 53°38' W 000°10'0 0.0
2015-May-21 21:31N 53°38' W 000°10'0 0.0
2015-May-21 20:31N 53°38' W 000°10'0 0.0
2015-May-21 19:31N 53°38' W 000°10'0 0.0
2015-May-21 18:31N 53°38' W 000°10'0 0.0
2015-May-21 17:31N 53°38' W 000°10'0 0.0
2015-May-21 16:34N 53°38' W 000°10'0 0.0
2015-May-21 15:34N 53°38' W 000°10'0 0.0
2015-May-21 14:34N 53°38' W 000°10'0 0.0
2015-May-21 13:33N 53°38' W 000°10'0 0.0
2015-May-21 12:33N 53°38' W 000°10'0 0.0
2015-May-21 11:33N 53°38' W 000°10'0 0.0
2015-May-21 10:33N 53°38' W 000°10'0 0.0
2015-May-21 09:33N 53°38' W 000°10'0 0.0
2015-May-21 08:33N 53°38' W 000°10'5 4.6
2015-May-21 07:33N 53°36' W 000°03'1110.6
2015-May-21 06:34N 53°33' E 000°15'7 7.2
2015-May-21 05:33N 53°36' E 000°26'0 0.0
2015-May-21 04:33N 53°36' E 000°26'0 0.0
2015-May-21 03:30N 53°36' E 000°26'0 0.1
2015-May-21 02:27N 53°36' E 000°26'0 0.2
2015-May-21 01:27N 53°36' E 000°26'0 0.0
2015-May-21 00:33N 53°36' E 000°26'0 0.0
2015-May-20 23:27N 53°36' E 000°26'0 0.0
2015-May-20 22:21N 53°36' E 000°26'0 0.0
2015-May-20 21:30N 53°36' E 000°26'0 0.2
2015-May-20 20:26N 53°36' E 000°26'0 0.0
2015-May-20 19:32N 53°36' E 000°26'0 0.0
2015-May-20 18:32N 53°36' E 000°26'0 0.0
2015-May-20 17:29N 53°36' E 000°26'0 0.0
2015-May-20 16:32N 53°36' E 000°26'0 0.0
2015-May-20 15:29N 53°36' E 000°26'0 0.1
2015-May-20 14:32N 53°36' E 000°26'0 0.2
2015-May-20 13:32N 53°36' E 000°26'0 0.0
2015-May-20 12:29N 53°36' E 000°26'0 0.0
2015-May-20 11:32N 53°36' E 000°26'0 0.0
2015-May-20 10:32N 53°36' E 000°26'0 0.1
2015-May-20 09:32N 53°36' E 000°26'0 0.1
2015-May-20 08:29N 53°36' E 000°26'0 0.0
2015-May-20 07:29N 53°36' E 000°26'0 0.0
2015-May-20 06:32N 53°36' E 000°26'0 0.0
2015-May-20 05:32N 53°36' E 000°26'0 0.0
2015-May-20 04:32N 53°36' E 000°26'0 0.0
2015-May-20 03:32N 53°36' E 000°26'0 0.1
2015-May-20 02:29N 53°36' E 000°26'0 0.1
2015-May-20 01:32N 53°36' E 000°26'0 0.1
2015-May-20 00:26N 53°36' E 000°26'0 0.0
2015-May-19 23:26N 53°36' E 000°26'0 0.0
2015-May-19 22:32N 53°36' E 000°26'0 0.0
2015-May-19 21:32N 53°36' E 000°26'0 0.1
2015-May-19 20:29N 53°36' E 000°26'0 0.1
2015-May-19 19:29N 53°36' E 000°26'0 0.1
2015-May-19 18:32N 53°36' E 000°26'0 0.0
2015-May-19 17:29N 53°36' E 000°26'0 0.0
2015-May-19 16:32N 53°36' E 000°26'0 0.0
2015-May-19 15:32N 53°36' E 000°26'0 0.1
2015-May-19 14:32N 53°36' E 000°26'0 0.1
2015-May-19 13:32N 53°36' E 000°26'0 0.1
2015-May-19 12:26N 53°36' E 000°26'0 0.0
2015-May-19 11:32N 53°36' E 000°26'0 0.0
2015-May-19 10:32N 53°36' E 000°26'0 0.0
2015-May-19 09:32N 53°36' E 000°26'0 0.1
2015-May-19 08:20N 53°36' E 000°26'0 0.0
2015-May-19 07:28N 53°36' E 000°26'0 0.1
2015-May-19 06:31N 53°36' E 000°26'0 0.1
2015-May-19 05:31N 53°36' E 000°26'0 0.1
2015-May-19 04:31N 53°36' E 000°26'0 0.0
2015-May-19 03:31N 53°36' E 000°26'0 0.1
2015-May-19 02:31N 53°36' E 000°26'0 0.1
2015-May-19 01:31N 53°36' E 000°26'0 0.1
2015-May-19 00:31N 53°36' E 000°26'0 0.0
2015-May-18 23:31N 53°36' E 000°26'0 0.0
2015-May-18 22:31N 53°36' E 000°26'0 0.0
2015-May-18 21:28N 53°36' E 000°26'0 0.0
2015-May-18 20:13N 53°36' E 000°26'0 0.1
2015-May-18 19:28N 53°36' E 000°26'0 0.1
2015-May-18 18:25N 53°36' E 000°26'0 0.0
2015-May-18 17:25N 53°36' E 000°26'0 0.0
2015-May-18 16:31N 53°36' E 000°26'4 4.4
2015-May-18 15:33N 53°32' E 000°29'8 7.9
2015-May-18 14:32N 53°25' E 000°34'26 8.9
2015-May-18 11:33N 53°04' E 001°02'10 9.8
2015-May-18 10:33N 53°00' E 001°17'10 9.9
2015-May-18 09:33N 52°56' E 001°32'9 9.1
2015-May-18 08:33N 52°51' E 001°45'9 8.6
2015-May-18 07:33N 52°47' E 001°57'8 7.6
2015-May-18 06:33N 52°40' E 002°01'9 8.8
2015-May-18 05:33N 52°31' E 002°00'9 9.2
2015-May-18 04:33N 52°22' E 001°57'9 9.0
2015-May-18 03:33N 52°13' E 001°54'9 9.0
2015-May-18 02:33N 52°04' E 001°52'9 9.2
2015-May-18 01:33N 51°55' E 001°49'9 9.2
2015-May-18 00:33N 51°46' E 001°49'9 9.3
2015-May-17 23:33N 51°37' E 001°50'9 8.8
2015-May-17 22:33N 51°28' E 001°47'10 9.5
2015-May-17 21:33N 51°19' E 001°42'9 9.1
2015-May-17 20:33N 51°11' E 001°36'7 7.1
2015-May-17 19:34N 51°04' E 001°36'8 7.8
2015-May-17 18:33N 50°58' E 001°28'8 8.0
2015-May-17 17:33N 50°51' E 001°24'9 8.5
2015-May-17 16:33N 50°43' E 001°20'11 8.9
2015-May-17 15:20N 50°35' E 001°07'60 8.9
2015-May-17 08:33N 49°50' E 000°05'1110.5
2015-May-17 07:33N 49°41' W 000°05'9 8.8
2015-May-17 06:33N 49°32' W 000°04'3 3.3
2015-May-17 05:31N 49°29' W 000°02'0 0.0
2015-May-17 04:31N 49°29' W 000°02'0 0.0
2015-May-17 03:31N 49°29' W 000°02'0 0.0
2015-May-17 02:28N 49°29' W 000°02'0 0.0
2015-May-17 01:34N 49°29' W 000°02'0 0.1
2015-May-17 00:33N 49°29' W 000°02'0 0.1
2015-May-16 23:33N 49°29' W 000°02'0 0.0
2015-May-16 22:33N 49°29' W 000°02'0 0.0
2015-May-16 21:33N 49°29' W 000°02'0 0.0
2015-May-16 20:33N 49°29' W 000°02'0 0.0
2015-May-16 19:33N 49°29' W 000°02'0 0.0
2015-May-16 18:33N 49°29' W 000°02'0 0.0
2015-May-16 17:33N 49°29' W 000°02'0 0.0
2015-May-16 16:33N 49°29' W 000°02'0 0.0
2015-May-16 15:33N 49°29' W 000°02'0 0.0
2015-May-16 14:33N 49°29' W 000°02'0 0.0
2015-May-16 13:33N 49°29' W 000°02'  

Dump ship's entire track history